createdAt,value
2023-12-10T00:01:07.844Z,57.74
2023-12-10T00:03:53.187Z,57.75
2023-12-10T00:06:21.833Z,57.92
2023-12-10T00:08:50.468Z,57.87
2023-12-10T00:11:18.942Z,58.02
2023-12-10T00:13:47.767Z,58.02
2023-12-10T00:16:16.327Z,58.05
2023-12-10T00:18:46.039Z,58.24
2023-12-10T00:21:15.383Z,58.10
2023-12-10T00:23:44.579Z,58.28
2023-12-10T00:26:13.033Z,58.24
2023-12-10T00:28:41.465Z,58.39
2023-12-10T00:31:10.305Z,58.29
2023-12-10T00:33:39.093Z,58.47
2023-12-10T00:36:08.367Z,58.47
2023-12-10T00:38:36.739Z,58.63
2023-12-10T00:41:06.201Z,58.57
2023-12-10T00:43:34.443Z,58.42
2023-12-10T00:46:02.774Z,58.50
2023-12-10T00:48:31.526Z,58.55
2023-12-10T00:51:00.221Z,58.52
2023-12-10T00:53:29.015Z,58.60
2023-12-10T00:55:57.477Z,58.53
2023-12-10T00:58:26.076Z,58.56
2023-12-10T01:03:36.006Z,58.46
2023-12-10T01:06:05.220Z,58.54
2023-12-10T01:08:33.866Z,58.61
2023-12-10T01:11:02.404Z,58.82
2023-12-10T01:13:30.679Z,58.88
2023-12-10T01:15:59.086Z,58.95
2023-12-10T01:18:27.530Z,58.93
2023-12-10T01:20:55.888Z,58.97
2023-12-10T01:23:24.149Z,59.03
2023-12-10T01:25:52.833Z,59.12
2023-12-10T01:28:21.414Z,59.13
2023-12-10T01:30:50.281Z,59.15
2023-12-10T01:33:18.948Z,59.14
2023-12-10T01:35:47.409Z,59.19
2023-12-10T01:38:15.859Z,59.22
2023-12-10T01:40:44.518Z,59.39
2023-12-10T01:43:13.238Z,59.38
2023-12-10T01:45:42.397Z,59.49
2023-12-10T01:48:11.296Z,59.40
2023-12-10T01:50:40.189Z,59.50
2023-12-10T01:53:08.691Z,59.56
2023-12-10T01:55:37.675Z,59.55
2023-12-10T01:58:06.116Z,59.60
2023-12-10T02:00:35.198Z,59.56
2023-12-10T02:03:04.609Z,59.60
2023-12-10T02:05:33.288Z,59.57
2023-12-10T02:08:01.718Z,59.66
2023-12-10T02:10:30.034Z,59.67
2023-12-10T02:12:58.692Z,59.71
2023-12-10T02:15:28.275Z,59.77
2023-12-10T02:17:57.522Z,59.83
2023-12-10T02:20:27.152Z,59.82
2023-12-10T02:23:21.964Z,59.92
2023-12-10T02:25:51.179Z,59.92
2023-12-10T02:28:19.556Z,60.05
2023-12-10T02:30:48.175Z,60.09
2023-12-10T02:33:16.708Z,60.13
2023-12-10T02:35:45.230Z,60.11
2023-12-10T02:38:13.588Z,60.13
2023-12-10T02:40:42.163Z,60.12
2023-12-10T02:43:10.605Z,60.15
2023-12-10T02:45:39.320Z,60.10
2023-12-10T02:48:07.784Z,60.18
2023-12-10T02:50:36.210Z,60.23
2023-12-10T02:53:04.643Z,60.15
2023-12-10T02:55:33.307Z,60.20
2023-12-10T02:58:03.559Z,60.25
2023-12-10T03:00:33.961Z,60.26
2023-12-10T03:03:04.043Z,60.28
2023-12-10T03:05:33.696Z,60.29
2023-12-10T03:08:02.121Z,60.35
2023-12-10T03:10:30.525Z,60.32
2023-12-10T03:12:59.096Z,60.32
2023-12-10T03:15:27.636Z,60.33
2023-12-10T03:17:56.129Z,60.30
2023-12-10T03:20:24.652Z,60.26
2023-12-10T03:22:52.869Z,60.29
2023-12-10T03:25:23.265Z,60.33
2023-12-10T03:27:53.852Z,60.35
2023-12-10T03:30:22.580Z,60.30
2023-12-10T03:32:51.299Z,60.36
2023-12-10T03:35:19.694Z,60.40
2023-12-10T03:37:48.111Z,60.43
2023-12-10T03:40:16.762Z,60.45
2023-12-10T03:42:45.857Z,60.49
2023-12-10T03:45:14.253Z,60.55
2023-12-10T03:47:42.456Z,60.57
2023-12-10T03:50:11.124Z,60.57
2023-12-10T03:52:39.478Z,60.57
2023-12-10T03:55:09.871Z,60.62
2023-12-10T03:57:38.819Z,60.69
2023-12-10T04:00:08.259Z,60.68
2023-12-10T04:02:37.269Z,60.74
2023-12-10T04:05:06.312Z,60.79
2023-12-10T04:07:34.904Z,60.82
2023-12-10T04:10:03.683Z,60.81
2023-12-10T04:12:33.118Z,60.83
2023-12-10T04:15:01.417Z,60.83
2023-12-10T04:17:30.609Z,60.87
2023-12-10T04:19:59.005Z,60.90
2023-12-10T04:22:28.691Z,60.86
2023-12-10T04:24:57.947Z,60.91
2023-12-10T04:27:26.499Z,60.97
2023-12-10T04:29:54.872Z,61.02
2023-12-10T04:32:23.250Z,61.09
2023-12-10T04:34:52.433Z,61.13
2023-12-10T04:37:20.836Z,61.14
2023-12-10T04:39:49.096Z,61.19
2023-12-10T04:42:17.678Z,61.22
2023-12-10T04:44:46.953Z,61.24
2023-12-10T04:47:15.264Z,61.31
2023-12-10T04:49:44.131Z,61.35
2023-12-10T04:52:12.787Z,61.35
2023-12-10T04:54:41.175Z,61.39
2023-12-10T04:57:09.689Z,61.45
2023-12-10T04:59:37.904Z,61.48
2023-12-10T05:02:06.324Z,61.49
2023-12-10T05:04:34.843Z,61.52
2023-12-10T05:07:03.334Z,61.56
2023-12-10T05:09:31.676Z,61.61
2023-12-10T05:12:00.279Z,61.69
2023-12-10T05:14:28.738Z,61.78
2023-12-10T05:16:57.146Z,61.75
2023-12-10T05:19:26.672Z,61.80
2023-12-10T05:21:55.208Z,61.76
2023-12-10T05:24:23.689Z,61.86
2023-12-10T05:26:52.135Z,61.92
2023-12-10T05:29:20.998Z,61.87
2023-12-10T05:31:49.211Z,61.99
2023-12-10T05:34:17.940Z,62.06
2023-12-10T05:36:46.647Z,62.07
2023-12-10T05:39:14.965Z,62.01
2023-12-10T05:41:43.830Z,62.01
2023-12-10T05:44:12.263Z,62.06
2023-12-10T05:46:40.572Z,62.12
2023-12-10T05:49:09.014Z,62.08
2023-12-10T05:51:37.622Z,62.13
2023-12-10T05:54:06.012Z,62.12
2023-12-10T05:56:34.804Z,62.11
2023-12-10T05:59:03.036Z,62.14
2023-12-10T06:01:32.009Z,62.15
2023-12-10T06:04:00.643Z,62.19
2023-12-10T06:06:29.120Z,62.22
2023-12-10T06:08:57.390Z,62.28
2023-12-10T06:11:25.995Z,62.30
2023-12-10T06:13:54.460Z,62.41
2023-12-10T06:16:22.790Z,62.50
2023-12-10T06:18:51.292Z,62.55
2023-12-10T06:21:19.804Z,62.55
2023-12-10T06:23:48.088Z,62.60
2023-12-10T06:26:16.850Z,62.68
2023-12-10T06:28:45.246Z,62.83
2023-12-10T06:31:14.303Z,62.86
2023-12-10T06:33:46.702Z,62.95
2023-12-10T06:36:15.170Z,63.04
2023-12-10T06:38:43.610Z,63.17
2023-12-10T06:41:12.090Z,63.22
2023-12-10T06:43:40.444Z,63.23
2023-12-10T06:46:08.743Z,63.38
2023-12-10T06:48:37.334Z,63.48
2023-12-10T06:51:06.251Z,63.60
2023-12-10T06:53:34.624Z,63.68
2023-12-10T06:56:03.479Z,63.69
2023-12-10T06:58:31.871Z,63.71
2023-12-10T07:01:00.395Z,63.84
2023-12-10T07:03:28.864Z,63.86
2023-12-10T07:05:57.364Z,63.91
2023-12-10T07:08:25.951Z,63.98
2023-12-10T07:10:54.355Z,64.02
2023-12-10T07:13:22.672Z,64.09
2023-12-10T07:15:51.525Z,64.11
2023-12-10T07:18:20.296Z,64.12
2023-12-10T07:20:48.708Z,64.18
2023-12-10T07:23:17.084Z,64.01
2023-12-10T07:25:45.900Z,63.97
2023-12-10T07:28:14.095Z,63.90
2023-12-10T07:30:42.337Z,63.81
2023-12-10T07:33:10.996Z,63.75
2023-12-10T07:35:39.679Z,63.69
2023-12-10T07:38:08.542Z,63.68
2023-12-10T07:40:37.372Z,63.74
2023-12-10T07:43:06.690Z,63.53
2023-12-10T07:45:35.256Z,62.02
2023-12-10T07:48:04.926Z,59.04
2023-12-10T07:50:33.327Z,55.85
2023-12-10T07:53:04.412Z,53.17
2023-12-10T07:55:34.587Z,51.55
2023-12-10T07:58:03.389Z,49.73
2023-12-10T08:00:31.931Z,48.09
2023-12-10T08:03:00.854Z,45.65
2023-12-10T08:05:29.333Z,43.03
2023-12-10T08:07:58.531Z,40.93
2023-12-10T08:10:27.030Z,38.99
2023-12-10T08:12:56.164Z,37.50
2023-12-10T08:15:24.896Z,36.80
2023-12-10T08:17:54.368Z,34.76
2023-12-10T08:20:23.580Z,33.63
2023-12-10T08:22:51.977Z,31.71
2023-12-10T08:25:20.395Z,30.36
2023-12-10T08:27:48.935Z,28.96
2023-12-10T08:30:18.369Z,28.34
2023-12-10T08:32:46.832Z,27.34
2023-12-10T08:35:15.159Z,26.41
2023-12-10T08:37:43.822Z,25.81
2023-12-10T08:40:12.486Z,24.88
2023-12-10T08:42:41.807Z,24.61
2023-12-10T08:45:10.369Z,23.64
2023-12-10T08:47:39.100Z,23.26
2023-12-10T08:50:07.912Z,22.53
2023-12-10T08:52:36.248Z,22.16
2023-12-10T08:55:04.998Z,21.51
2023-12-10T08:57:33.556Z,20.84
2023-12-10T09:00:02.130Z,20.48
2023-12-10T09:02:31.833Z,20.03
2023-12-10T09:05:00.662Z,19.78
2023-12-10T09:07:31.269Z,19.66
2023-12-10T09:10:08.236Z,19.78
2023-12-10T09:12:40.688Z,20.32
2023-12-10T09:15:09.859Z,20.97
2023-12-10T09:17:38.386Z,21.51
2023-12-10T09:20:08.970Z,22.34
2023-12-10T09:22:37.237Z,22.27
2023-12-10T09:25:06.650Z,22.19
2023-12-10T09:27:35.129Z,21.74
2023-12-10T09:30:03.929Z,21.32
2023-12-10T09:32:32.664Z,20.67
2023-12-10T09:35:03.426Z,20.25
2023-12-10T09:37:31.833Z,19.32
2023-12-10T09:40:00.639Z,19.09
2023-12-10T09:42:29.623Z,18.69
2023-12-10T09:44:58.253Z,18.20
2023-12-10T09:47:28.297Z,17.78
2023-12-10T09:49:59.746Z,17.69
2023-12-10T09:52:28.619Z,17.79
2023-12-10T09:54:57.437Z,17.61
2023-12-10T09:57:26.254Z,17.28
2023-12-10T09:59:55.276Z,16.92
2023-12-10T10:02:34.827Z,16.89
2023-12-10T10:05:05.305Z,16.63
2023-12-10T10:07:33.921Z,16.42
2023-12-10T10:10:02.543Z,16.61
2023-12-10T10:12:32.631Z,16.36
2023-12-10T10:15:02.268Z,16.96
2023-12-10T10:17:33.437Z,16.31
2023-12-10T10:20:03.972Z,16.48
2023-12-10T10:22:32.808Z,16.40
2023-12-10T10:25:01.370Z,16.29
2023-12-10T10:27:30.484Z,16.50
2023-12-10T10:30:03.217Z,16.20
2023-12-10T10:32:32.058Z,16.27
2023-12-10T10:35:04.612Z,16.51
2023-12-10T10:37:33.093Z,16.68
2023-12-10T10:40:02.082Z,16.40
2023-12-10T10:42:31.683Z,16.61
2023-12-10T10:45:02.668Z,16.56
2023-12-10T10:47:33.941Z,16.50
2023-12-10T10:50:20.890Z,16.39
2023-12-10T10:52:57.380Z,16.16
2023-12-10T10:55:26.589Z,15.93
2023-12-10T10:57:55.748Z,15.80
2023-12-10T11:00:27.444Z,15.83
2023-12-10T11:02:56.337Z,15.74
2023-12-10T11:05:32.620Z,15.99
2023-12-10T11:08:02.482Z,16.29
2023-12-10T11:10:31.403Z,16.59
2023-12-10T11:13:01.139Z,16.77
2023-12-10T11:15:30.470Z,17.25
2023-12-10T11:18:01.394Z,17.65
2023-12-10T11:20:43.699Z,17.91
2023-12-10T11:23:16.987Z,18.34
2023-12-10T11:25:46.206Z,19.09
2023-12-10T11:28:16.553Z,19.87
2023-12-10T11:30:46.306Z,20.23
2023-12-10T11:33:16.813Z,20.70
2023-12-10T11:36:17.277Z,21.11
2023-12-10T11:38:34.874Z,21.50
2023-12-10T11:41:05.210Z,22.14
2023-12-10T11:43:33.954Z,22.79
2023-12-10T11:46:03.009Z,22.99
2023-12-10T11:48:32.590Z,23.84
2023-12-10T11:51:01.540Z,24.72
2023-12-10T11:53:30.349Z,25.62
2023-12-10T11:55:59.810Z,26.52
2023-12-10T11:58:29.094Z,27.48
2023-12-10T12:01:00.157Z,28.14
2023-12-10T12:03:32.714Z,28.41
2023-12-10T12:06:01.739Z,29.07
2023-12-10T12:08:31.184Z,29.25
2023-12-10T12:11:00.106Z,29.54
2023-12-10T12:13:29.884Z,29.96
2023-12-10T12:15:58.893Z,30.18
2023-12-10T12:18:28.451Z,30.70
2023-12-10T12:20:57.717Z,30.61
2023-12-10T12:23:26.646Z,30.72
2023-12-10T12:25:56.240Z,31.10
2023-12-10T12:28:25.321Z,31.35
2023-12-10T12:30:54.807Z,31.57
2023-12-10T12:33:23.853Z,32.31
2023-12-10T12:35:52.574Z,32.96
2023-12-10T12:38:21.041Z,33.79
2023-12-10T12:40:49.442Z,34.33
2023-12-10T12:43:18.728Z,34.66
2023-12-10T12:45:47.005Z,35.01
2023-12-10T12:48:15.547Z,35.31
2023-12-10T12:50:44.470Z,36.31
2023-12-10T12:53:14.091Z,37.75
2023-12-10T12:55:43.109Z,37.65
2023-12-10T12:58:12.379Z,38.43
2023-12-10T13:00:40.769Z,38.90
2023-12-10T13:03:10.471Z,39.45
2023-12-10T13:05:39.273Z,39.89
2023-12-10T13:08:07.689Z,39.95
2023-12-10T13:10:36.235Z,40.07
2023-12-10T13:13:04.873Z,39.86
2023-12-10T13:15:33.933Z,39.31
2023-12-10T13:18:02.668Z,38.94
2023-12-10T13:20:31.593Z,38.49
2023-12-10T13:23:00.686Z,38.38
2023-12-10T13:25:28.898Z,38.23
2023-12-10T13:27:57.466Z,38.06
2023-12-10T13:30:26.247Z,38.27
2023-12-10T13:32:54.713Z,38.56
2023-12-10T13:35:23.947Z,38.61
2023-12-10T13:37:52.138Z,38.63
2023-12-10T13:40:20.658Z,38.70
2023-12-10T13:42:49.508Z,38.61
2023-12-10T13:45:17.873Z,38.55
2023-12-10T13:47:46.432Z,38.39
2023-12-10T13:50:16.224Z,38.01
2023-12-10T13:52:45.314Z,38.23
2023-12-10T13:55:14.320Z,38.54
2023-12-10T13:57:43.133Z,39.24
2023-12-10T14:00:12.516Z,39.71
2023-12-10T14:02:41.669Z,40.20
2023-12-10T14:05:09.942Z,40.87
2023-12-10T14:07:38.251Z,41.39
2023-12-10T14:10:07.243Z,41.89
2023-12-10T14:12:35.706Z,42.58
2023-12-10T14:15:04.571Z,42.94
2023-12-10T14:17:33.673Z,43.19
2023-12-10T14:20:04.104Z,43.35
2023-12-10T14:22:33.616Z,44.01
2023-12-10T14:25:02.298Z,44.40
2023-12-10T14:27:33.367Z,45.03
2023-12-10T14:30:01.747Z,45.11
2023-12-10T14:32:30.050Z,45.34
2023-12-10T14:34:58.743Z,45.37
2023-12-10T14:37:27.506Z,45.38
2023-12-10T14:39:56.521Z,45.44
2023-12-10T14:42:26.110Z,45.35
2023-12-10T14:44:54.513Z,45.35
2023-12-10T14:47:22.790Z,45.70
2023-12-10T14:49:52.119Z,45.76
2023-12-10T14:52:20.604Z,45.48
2023-12-10T14:54:49.484Z,45.70
2023-12-10T14:57:17.884Z,46.05
2023-12-10T14:59:46.461Z,46.36
2023-12-10T15:02:15.130Z,46.74
2023-12-10T15:04:43.557Z,46.57
2023-12-10T15:07:13.022Z,46.99
2023-12-10T15:09:41.339Z,47.14
2023-12-10T15:12:10.441Z,47.49
2023-12-10T15:14:39.573Z,48.00
2023-12-10T15:17:08.058Z,48.40
2023-12-10T15:19:36.449Z,48.30
2023-12-10T15:22:06.567Z,49.29
2023-12-10T15:24:36.174Z,50.16
2023-12-10T15:27:04.858Z,50.94
2023-12-10T15:29:33.990Z,52.09
2023-12-10T15:32:02.376Z,52.79
2023-12-10T15:34:31.054Z,53.30
2023-12-10T15:36:59.868Z,54.32
2023-12-10T15:39:29.149Z,55.14
2023-12-10T15:41:58.152Z,56.04
2023-12-10T15:44:26.394Z,56.93
2023-12-10T15:46:54.905Z,57.68
2023-12-10T15:49:23.400Z,58.31
2023-12-10T15:51:53.406Z,58.93
2023-12-10T15:54:22.183Z,59.12
2023-12-10T15:56:50.502Z,59.55
2023-12-10T15:59:18.688Z,59.61
2023-12-10T16:01:47.150Z,60.15
2023-12-10T16:04:15.651Z,60.08
2023-12-10T16:06:44.292Z,60.56
2023-12-10T16:09:12.681Z,60.61
2023-12-10T16:11:41.467Z,61.22
2023-12-10T16:14:11.184Z,61.62
2023-12-10T16:16:39.827Z,62.02
2023-12-10T16:19:08.845Z,62.16
2023-12-10T16:21:37.773Z,62.16
2023-12-10T16:24:06.614Z,62.28
2023-12-10T16:26:39.422Z,62.69
2023-12-10T16:29:07.906Z,62.64
2023-12-10T16:31:36.406Z,63.49
2023-12-10T16:34:04.881Z,63.65
2023-12-10T16:36:36.271Z,64.06
2023-12-10T16:39:04.834Z,64.17
2023-12-10T16:41:34.782Z,64.01
2023-12-10T16:44:04.005Z,64.42
2023-12-10T16:46:39.391Z,64.66
2023-12-10T16:49:08.242Z,64.62
2023-12-10T16:51:37.144Z,64.55
2023-12-10T16:54:06.116Z,65.07
2023-12-10T16:56:34.522Z,65.02
2023-12-10T16:59:02.819Z,65.22
2023-12-10T17:01:32.021Z,65.09
2023-12-10T17:04:01.031Z,65.41
2023-12-10T17:06:29.855Z,65.41
2023-12-10T17:08:58.372Z,65.42
2023-12-10T17:11:28.407Z,65.46
2023-12-10T17:13:56.664Z,65.75
2023-12-10T17:16:25.238Z,65.70
2023-12-10T17:18:54.801Z,65.91
2023-12-10T17:21:23.491Z,65.87
2023-12-10T17:23:52.447Z,66.01
2023-12-10T17:26:20.843Z,65.84
2023-12-10T17:28:49.126Z,66.65
2023-12-10T17:31:17.617Z,66.39
2023-12-10T17:33:46.314Z,66.24
2023-12-10T17:36:15.878Z,66.18
2023-12-10T17:38:44.211Z,66.30
2023-12-10T17:41:12.591Z,66.31
2023-12-10T17:43:41.074Z,65.99
2023-12-10T17:46:09.435Z,66.14
2023-12-10T17:48:37.957Z,66.39
2023-12-10T17:51:13.768Z,66.35
2023-12-10T17:53:45.107Z,66.27
2023-12-10T17:56:15.302Z,66.27
2023-12-10T17:58:44.024Z,66.26
2023-12-10T18:01:13.510Z,66.28
2023-12-10T18:03:42.211Z,66.29
2023-12-10T18:06:10.616Z,66.26
2023-12-10T18:08:39.408Z,66.19
2023-12-10T18:11:07.860Z,66.22
2023-12-10T18:13:36.763Z,66.31
2023-12-10T18:16:07.582Z,66.34
2023-12-10T18:18:36.005Z,66.40
2023-12-10T18:21:04.958Z,66.60
2023-12-10T18:23:33.308Z,66.76
2023-12-10T18:26:01.724Z,66.89
2023-12-10T18:28:30.041Z,67.00
2023-12-10T18:31:00.215Z,67.20
2023-12-10T18:33:29.779Z,67.30
2023-12-10T18:35:58.889Z,67.38
2023-12-10T18:38:27.151Z,67.45
2023-12-10T18:40:55.367Z,67.68
2023-12-10T18:43:24.346Z,67.76
2023-12-10T18:45:52.966Z,67.90
2023-12-10T18:48:21.774Z,68.04
2023-12-10T18:50:50.360Z,67.98
2023-12-10T18:53:18.616Z,68.07
2023-12-10T18:55:46.872Z,68.08
2023-12-10T18:58:15.754Z,68.25
2023-12-10T19:00:44.503Z,68.36
2023-12-10T19:03:12.901Z,68.43
2023-12-10T19:05:41.800Z,68.39
2023-12-10T19:08:10.134Z,68.34
2023-12-10T19:10:39.093Z,68.34
2023-12-10T19:13:10.904Z,68.42
2023-12-10T19:15:39.513Z,68.47
2023-12-10T19:18:08.048Z,68.44
2023-12-10T19:20:37.097Z,68.43
2023-12-10T19:23:05.364Z,68.46
2023-12-10T19:25:33.721Z,68.54
2023-12-10T19:28:02.795Z,68.40
2023-12-10T19:30:31.398Z,68.48
2023-12-10T19:32:59.837Z,68.37
2023-12-10T19:35:29.448Z,68.39
2023-12-10T19:37:58.405Z,68.20
2023-12-10T19:40:26.633Z,68.03
2023-12-10T19:42:54.889Z,67.54
2023-12-10T19:45:23.778Z,67.27
2023-12-10T19:47:52.186Z,67.17
2023-12-10T19:50:22.031Z,66.91
2023-12-10T19:52:50.773Z,66.83
2023-12-10T19:55:18.992Z,66.84
2023-12-10T19:57:47.620Z,66.81
2023-12-10T20:00:16.290Z,66.85
2023-12-10T20:02:44.779Z,66.88
2023-12-10T20:05:13.513Z,66.93
2023-12-10T20:07:42.209Z,67.01
2023-12-10T20:10:10.768Z,67.02
2023-12-10T20:12:39.862Z,67.04
2023-12-10T20:15:11.279Z,67.11
2023-12-10T20:17:41.209Z,67.13
2023-12-10T20:20:10.013Z,67.15
2023-12-10T20:22:38.390Z,67.21
2023-12-10T20:25:10.991Z,67.26
2023-12-10T20:27:44.772Z,67.23
2023-12-10T20:30:14.044Z,67.19
2023-12-10T20:32:42.485Z,67.21
2023-12-10T20:35:11.453Z,67.31
2023-12-10T20:37:39.935Z,67.25
2023-12-10T20:40:09.244Z,67.26
2023-12-10T20:42:38.173Z,67.29
2023-12-10T20:45:07.471Z,67.30
2023-12-10T20:47:35.757Z,67.42
2023-12-10T20:50:04.496Z,67.62
2023-12-10T20:52:33.959Z,67.60
2023-12-10T20:55:02.846Z,67.61
2023-12-10T20:57:31.434Z,67.61
2023-12-10T21:00:00.061Z,67.49
2023-12-10T21:02:30.153Z,67.63
2023-12-10T21:04:59.428Z,67.63
2023-12-10T21:07:28.041Z,67.62
2023-12-10T21:09:56.635Z,67.43
2023-12-10T21:12:25.395Z,67.38
2023-12-10T21:14:53.694Z,67.44
2023-12-10T21:17:23.289Z,67.38
2023-12-10T21:19:52.191Z,67.35
2023-12-10T21:22:20.889Z,67.36
2023-12-10T21:24:49.127Z,67.32
2023-12-10T21:27:17.509Z,67.27
2023-12-10T21:29:45.858Z,67.31
2023-12-10T21:32:14.064Z,67.28
2023-12-10T21:34:43.936Z,67.21
2023-12-10T21:37:12.733Z,67.17
2023-12-10T21:39:42.223Z,67.13
2023-12-10T21:42:10.860Z,67.06
2023-12-10T21:44:39.174Z,66.82
2023-12-10T21:47:07.515Z,66.70
2023-12-10T21:49:39.756Z,66.61
2023-12-10T21:52:08.698Z,66.44
2023-12-10T21:54:37.181Z,66.42
2023-12-10T21:57:05.485Z,66.30
2023-12-10T21:59:33.807Z,66.35
2023-12-10T22:02:02.474Z,66.27
2023-12-10T22:04:30.980Z,66.22
2023-12-10T22:06:59.599Z,66.12
2023-12-10T22:09:28.153Z,66.04
2023-12-10T22:11:56.479Z,65.90
2023-12-10T22:14:24.704Z,65.93
2023-12-10T22:16:53.902Z,65.94
2023-12-10T22:19:22.499Z,65.93
2023-12-10T22:21:51.495Z,65.96
2023-12-10T22:24:20.913Z,65.98
2023-12-10T22:26:49.345Z,65.93
2023-12-10T22:29:18.091Z,65.92
2023-12-10T22:31:46.355Z,66.01
2023-12-10T22:34:14.655Z,65.99
2023-12-10T22:36:43.406Z,65.99
2023-12-10T22:39:12.017Z,65.99
2023-12-10T22:41:40.389Z,65.91
2023-12-10T22:44:08.940Z,66.12
2023-12-10T22:46:37.270Z,66.14
2023-12-10T22:49:05.679Z,66.14
2023-12-10T22:51:34.285Z,66.23
2023-12-10T22:54:02.864Z,66.13
2023-12-10T22:56:32.586Z,66.16
2023-12-10T22:59:01.144Z,66.12
2023-12-10T23:01:29.509Z,66.12
2023-12-10T23:03:57.906Z,66.03
2023-12-10T23:06:26.645Z,65.90
2023-12-10T23:08:55.606Z,65.91
2023-12-10T23:11:24.153Z,65.77
2023-12-10T23:13:52.642Z,65.76
2023-12-10T23:16:20.976Z,65.77
2023-12-10T23:18:49.523Z,65.73
2023-12-10T23:21:18.068Z,65.70
2023-12-10T23:23:46.428Z,65.65
2023-12-10T23:26:14.709Z,65.53
2023-12-10T23:28:43.639Z,65.47
2023-12-10T23:31:12.215Z,65.43
2023-12-10T23:33:41.093Z,65.38
2023-12-10T23:36:09.657Z,65.24
2023-12-10T23:38:39.698Z,65.03
2023-12-10T23:41:09.033Z,64.91
2023-12-10T23:43:37.619Z,64.80
2023-12-10T23:46:10.413Z,64.58
2023-12-10T23:48:39.692Z,64.42
2023-12-10T23:51:21.295Z,64.29
2023-12-10T23:53:49.932Z,64.19
2023-12-10T23:56:18.313Z,64.08
2023-12-10T23:58:46.910Z,63.96
